Windsor, Missouri
Current Conditions -  °F | °C
As of 3:58 PM on Wednesday 22 Oct 2014 (Local Time) from KSZL Reporting Station
Clear Clear  
Wind Chill: 71°   Ceiling: Unl
Heat Index: 71°   Visibility: 10mi
Dew Point: 49°   Wind: 12mph
Humidity: 45%   Direction: 150°SSE
Pressure: 30.13"   Gusts: NA
Location:  38.53°N, 93.52°W
Report Text: KSZL 222058Z AUTO 15010KT 10SM CLR 22/10 A3013 RMK AO2 SLP204 60000 T02180095 57024 $
Loading
Personal Weather Stations






























Interactive Weather Map New forecast layout! Learn more

10-Day Weather Forecast

Advertisements
Track Severe Weather on mobile